createdAt,value
2018-08-10T00:00:31.026Z,15.61
2018-08-10T00:01:31.017Z,15.64
2018-08-10T00:02:31.008Z,15.70
2018-08-10T00:03:31.002Z,15.67
2018-08-10T00:04:31.000Z,15.67
2018-08-10T00:05:30.989Z,15.67
2018-08-10T00:06:30.983Z,15.65
2018-08-10T00:07:30.975Z,15.64
2018-08-10T00:08:30.970Z,15.67
2018-08-10T00:09:30.963Z,15.58
2018-08-10T00:10:30.957Z,15.65
2018-08-10T00:11:30.950Z,15.65
2018-08-10T00:12:30.944Z,15.54
2018-08-10T00:13:30.937Z,15.62
2018-08-10T00:14:30.931Z,15.44
2018-08-10T00:15:30.924Z,15.43
2018-08-10T00:16:30.917Z,15.46
2018-08-10T00:17:30.911Z,15.39
2018-08-10T00:18:30.904Z,15.43
2018-08-10T00:19:30.897Z,15.35
2018-08-10T00:20:30.891Z,15.33
2018-08-10T00:21:30.884Z,15.25
2018-08-10T00:22:30.878Z,15.18
2018-08-10T00:23:30.871Z,15.24
2018-08-10T00:24:30.864Z,15.15
2018-08-10T00:25:30.857Z,15.18
2018-08-10T00:26:30.851Z,15.22
2018-08-10T00:27:30.843Z,15.06
2018-08-10T00:28:30.837Z,15.06
2018-08-10T00:29:30.830Z,15.07
2018-08-10T00:30:30.824Z,15.04
2018-08-10T00:31:30.817Z,15.02
2018-08-10T00:32:30.809Z,15.02
2018-08-10T00:33:30.803Z,14.99
2018-08-10T00:34:30.796Z,15.04
2018-08-10T00:35:30.789Z,14.99
2018-08-10T00:36:30.783Z,14.97
2018-08-10T00:37:30.776Z,15.03
2018-08-10T00:38:30.769Z,14.97
2018-08-10T00:39:30.762Z,14.97
2018-08-10T00:40:30.757Z,15.06
2018-08-10T00:41:30.749Z,14.96
2018-08-10T00:42:30.742Z,15.00
2018-08-10T00:43:30.735Z,14.97
2018-08-10T00:44:30.727Z,14.94
2018-08-10T00:45:30.721Z,15.00
2018-08-10T00:46:30.714Z,14.96
2018-08-10T00:47:30.713Z,14.97
2018-08-10T00:48:30.703Z,14.92
2018-08-10T00:49:30.693Z,14.92
2018-08-10T00:50:30.686Z,14.85
2018-08-10T00:51:30.681Z,14.91
2018-08-10T00:52:30.676Z,14.88
2018-08-10T00:53:30.666Z,14.88
2018-08-10T00:54:30.659Z,14.92
2018-08-10T00:55:30.651Z,14.96
2018-08-10T00:56:30.644Z,14.89
2018-08-10T00:57:30.637Z,14.97
2018-08-10T00:58:30.631Z,14.99
2018-08-10T00:59:30.623Z,14.99
2018-08-10T01:00:30.616Z,15.07
2018-08-10T01:01:30.610Z,15.06
2018-08-10T01:02:30.603Z,15.00
2018-08-10T01:03:30.595Z,14.96
2018-08-10T01:04:30.589Z,14.99
2018-08-10T01:05:30.582Z,15.03
2018-08-10T01:06:30.575Z,14.94
2018-08-10T01:07:30.571Z,15.06
2018-08-10T01:08:30.564Z,14.96
2018-08-10T01:09:30.557Z,15.04
2018-08-10T01:10:30.548Z,15.03
2018-08-10T01:11:30.540Z,15.07
2018-08-10T01:12:30.532Z,15.03
2018-08-10T01:13:30.625Z,15.06
2018-08-10T01:14:30.520Z,15.07
2018-08-10T01:15:30.513Z,15.02
2018-08-10T01:16:30.505Z,15.03
2018-08-10T01:17:30.498Z,15.09
2018-08-10T01:18:30.492Z,15.00
2018-08-10T01:19:30.643Z,15.04
2018-08-10T01:20:30.477Z,15.04
2018-08-10T01:21:30.470Z,14.92
2018-08-10T01:22:30.464Z,14.96
2018-08-10T01:23:30.455Z,15.02
2018-08-10T01:24:30.449Z,14.96
2018-08-10T01:25:30.442Z,15.02
2018-08-10T01:26:30.436Z,14.96
2018-08-10T01:27:30.428Z,15.03
2018-08-10T01:28:30.491Z,14.92
2018-08-10T01:29:30.415Z,14.94
2018-08-10T01:30:30.409Z,14.96
2018-08-10T01:31:30.400Z,15.00
2018-08-10T01:32:30.393Z,14.96
2018-08-10T01:33:30.386Z,14.94
2018-08-10T01:34:30.380Z,14.97
2018-08-10T01:35:30.374Z,14.96
2018-08-10T01:36:30.371Z,14.89
2018-08-10T01:37:30.358Z,14.89
2018-08-10T01:38:30.352Z,14.96
2018-08-10T01:39:30.346Z,14.97
2018-08-10T01:40:30.338Z,14.92
2018-08-10T01:41:30.331Z,14.96
2018-08-10T01:42:30.324Z,14.81
2018-08-10T01:43:30.317Z,14.92
2018-08-10T01:44:30.310Z,14.91
2018-08-10T01:45:30.303Z,14.88
2018-08-10T01:46:30.296Z,14.84
2018-08-10T01:47:30.289Z,14.84
2018-08-10T01:48:30.282Z,14.88
2018-08-10T01:49:30.277Z,14.88
2018-08-10T01:50:30.270Z,14.97
2018-08-10T01:51:30.261Z,14.89
2018-08-10T01:52:30.254Z,14.86
2018-08-10T01:53:30.250Z,14.84
2018-08-10T01:54:30.241Z,14.96
2018-08-10T01:55:30.233Z,14.96
2018-08-10T01:56:30.226Z,14.96
2018-08-10T01:57:30.219Z,14.96
2018-08-10T01:58:30.213Z,14.96
2018-08-10T01:59:30.205Z,14.92
2018-08-10T02:00:30.199Z,14.89
2018-08-10T02:01:30.192Z,14.84
2018-08-10T02:02:30.185Z,14.77
2018-08-10T02:03:30.179Z,14.81
2018-08-10T02:04:30.171Z,14.81
2018-08-10T02:05:30.164Z,14.85
2018-08-10T02:06:30.157Z,14.84
2018-08-10T02:07:30.149Z,14.84
2018-08-10T02:08:30.143Z,14.78
2018-08-10T02:09:30.136Z,14.79
2018-08-10T02:10:30.129Z,14.82
2018-08-10T02:11:30.121Z,14.81
2018-08-10T02:12:30.117Z,14.81
2018-08-10T02:13:30.107Z,14.81
2018-08-10T02:14:30.101Z,14.79
2018-08-10T02:15:30.094Z,14.73
2018-08-10T02:16:30.087Z,14.81
2018-08-10T02:17:30.083Z,14.79
2018-08-10T02:18:30.074Z,14.78
2018-08-10T02:19:30.065Z,14.78
2018-08-10T02:20:30.059Z,14.77
2018-08-10T02:21:30.054Z,14.73
2018-08-10T02:22:30.046Z,14.62
2018-08-10T02:23:30.038Z,14.68
2018-08-10T02:24:30.031Z,14.65
2018-08-10T02:25:30.025Z,14.68
2018-08-10T02:26:30.018Z,14.60
2018-08-10T02:27:30.010Z,14.54
2018-08-10T02:28:30.003Z,14.65
2018-08-10T02:29:29.996Z,14.65
2018-08-10T02:30:29.989Z,14.58
2018-08-10T02:31:29.982Z,14.54
2018-08-10T02:32:29.977Z,14.58
2018-08-10T02:33:29.968Z,14.58
2018-08-10T02:34:29.962Z,14.58
2018-08-10T02:35:29.954Z,14.55
2018-08-10T02:36:29.947Z,14.53
2018-08-10T02:37:29.940Z,14.54
2018-08-10T02:38:29.933Z,14.51
2018-08-10T02:39:29.925Z,14.48
2018-08-10T02:40:29.926Z,14.51
2018-08-10T02:41:29.912Z,14.41
2018-08-10T02:42:29.905Z,14.47
2018-08-10T02:43:29.897Z,14.44
2018-08-10T02:44:29.890Z,14.43
2018-08-10T02:45:29.883Z,14.47
2018-08-10T02:46:29.877Z,14.45
2018-08-10T02:47:29.868Z,14.37
2018-08-10T02:48:29.861Z,14.33
2018-08-10T02:49:29.854Z,14.40
2018-08-10T02:50:29.848Z,14.37
2018-08-10T02:51:29.839Z,14.28
2018-08-10T02:52:29.832Z,14.26
2018-08-10T02:53:29.829Z,14.29
2018-08-10T02:54:29.818Z,14.26
2018-08-10T02:55:29.810Z,14.23
2018-08-10T02:56:29.803Z,14.29
2018-08-10T02:57:29.797Z,14.32
2018-08-10T02:58:29.789Z,14.36
2018-08-10T02:59:29.781Z,14.28
2018-08-10T03:00:29.779Z,14.25
2018-08-10T03:01:29.768Z,14.37
2018-08-10T03:02:29.761Z,14.28
2018-08-10T03:03:29.753Z,14.30
2018-08-10T03:04:29.746Z,14.29
2018-08-10T03:05:29.739Z,14.18
2018-08-10T03:06:29.732Z,14.29
2018-08-10T03:07:29.724Z,14.29
2018-08-10T03:08:29.717Z,14.35
2018-08-10T03:09:29.711Z,14.26
2018-08-10T03:10:29.704Z,14.29
2018-08-10T03:11:29.695Z,14.22
2018-08-10T03:12:29.688Z,14.35
2018-08-10T03:13:29.681Z,14.28
2018-08-10T03:14:29.674Z,14.23
2018-08-10T03:15:29.667Z,14.15
2018-08-10T03:16:29.659Z,14.14
2018-08-10T03:17:29.653Z,14.05
2018-08-10T03:18:29.645Z,14.03
2018-08-10T03:19:29.637Z,14.07
2018-08-10T03:20:29.630Z,14.08
2018-08-10T03:21:29.623Z,14.07
2018-08-10T03:22:29.616Z,14.08
2018-08-10T03:23:29.608Z,14.04
2018-08-10T03:24:29.601Z,14.08
2018-08-10T03:25:29.597Z,14.10
2018-08-10T03:26:29.589Z,14.12
2018-08-10T03:27:29.579Z,14.18
2018-08-10T03:28:29.572Z,14.14
2018-08-10T03:29:29.567Z,14.10
2018-08-10T03:30:29.559Z,14.18
2018-08-10T03:31:29.549Z,14.17
2018-08-10T03:32:29.542Z,14.15
2018-08-10T03:33:29.540Z,14.18
2018-08-10T03:34:29.528Z,14.23
2018-08-10T03:35:29.521Z,14.15
2018-08-10T03:36:29.513Z,14.23
2018-08-10T03:37:29.506Z,14.20
2018-08-10T03:38:29.500Z,14.25
2018-08-10T03:39:29.490Z,14.29
2018-08-10T03:40:29.483Z,14.26
2018-08-10T03:41:29.476Z,14.25
2018-08-10T03:42:29.469Z,14.20
2018-08-10T03:43:29.462Z,14.26
2018-08-10T03:44:29.453Z,14.29
2018-08-10T03:45:29.447Z,14.30
2018-08-10T03:46:29.441Z,14.28
2018-08-10T03:47:29.432Z,14.35
2018-08-10T03:48:29.424Z,14.23
2018-08-10T03:49:29.417Z,14.29
2018-08-10T03:50:29.410Z,14.29
2018-08-10T03:51:29.402Z,14.32
2018-08-10T03:52:29.394Z,14.22
2018-08-10T03:53:29.388Z,14.30
2018-08-10T03:54:29.381Z,14.28
2018-08-10T03:55:29.373Z,14.32
2018-08-10T03:56:29.366Z,14.30
2018-08-10T03:57:29.358Z,14.41
2018-08-10T03:58:29.351Z,14.29
2018-08-10T03:59:29.343Z,14.23
2018-08-10T04:00:29.336Z,14.26
2018-08-10T04:01:29.330Z,14.28
2018-08-10T04:02:29.321Z,14.30
2018-08-10T04:03:29.315Z,14.29
2018-08-10T04:04:29.307Z,14.25
2018-08-10T04:05:29.301Z,14.25
2018-08-10T04:06:29.294Z,14.40
2018-08-10T04:07:29.287Z,14.36
2018-08-10T04:08:29.278Z,14.35
2018-08-10T04:09:29.271Z,14.41
2018-08-10T04:10:29.264Z,14.45
2018-08-10T04:11:29.256Z,14.44
2018-08-10T04:12:29.250Z,14.43
2018-08-10T04:13:29.242Z,14.45
2018-08-10T04:14:29.235Z,14.47
2018-08-10T04:15:29.228Z,14.48
2018-08-10T04:16:29.221Z,14.48
2018-08-10T04:17:29.214Z,14.54
2018-08-10T04:18:29.206Z,14.53
2018-08-10T04:19:29.199Z,14.53
2018-08-10T04:20:29.191Z,14.53
2018-08-10T04:21:29.184Z,14.51
2018-08-10T04:22:29.178Z,14.50
2018-08-10T04:23:29.170Z,14.50
2018-08-10T04:24:29.163Z,14.54
2018-08-10T04:25:29.156Z,14.53
2018-08-10T04:26:29.149Z,14.51
2018-08-10T04:27:29.141Z,14.54
2018-08-10T04:28:29.134Z,14.53
2018-08-10T04:29:29.167Z,14.53
2018-08-10T04:30:29.120Z,14.55
2018-08-10T04:31:29.112Z,14.54
2018-08-10T04:32:29.105Z,14.48
2018-08-10T04:33:29.100Z,14.54
2018-08-10T04:34:29.091Z,14.55
2018-08-10T04:35:29.083Z,14.51
2018-08-10T04:36:29.076Z,14.55
2018-08-10T04:37:29.068Z,14.45
2018-08-10T04:38:29.084Z,14.51
2018-08-10T04:39:29.078Z,14.47
2018-08-10T04:40:29.047Z,14.37
2018-08-10T04:41:29.040Z,14.50
2018-08-10T04:42:29.037Z,14.50
2018-08-10T04:43:29.028Z,14.59
2018-08-10T04:44:29.021Z,14.54
2018-08-10T04:45:29.012Z,14.53
2018-08-10T04:46:29.004Z,14.54
2018-08-10T04:47:28.997Z,14.58
2018-08-10T04:48:28.991Z,14.58
2018-08-10T04:49:28.983Z,14.58
2018-08-10T04:50:28.976Z,14.66
2018-08-10T04:51:28.967Z,14.54
2018-08-10T04:52:28.961Z,14.66
2018-08-10T04:53:28.954Z,14.60
2018-08-10T04:54:28.947Z,14.63
2018-08-10T04:55:29.029Z,14.66
2018-08-10T04:56:28.932Z,14.66
2018-08-10T04:57:28.924Z,14.66
2018-08-10T04:58:28.918Z,14.65
2018-08-10T04:59:28.916Z,14.73
2018-08-10T05:00:28.903Z,14.65
2018-08-10T05:01:28.896Z,14.62
2018-08-10T05:02:28.889Z,14.77
2018-08-10T05:03:28.881Z,14.68
2018-08-10T05:04:28.875Z,14.72
2018-08-10T05:05:28.868Z,14.72
2018-08-10T05:06:28.861Z,14.72
2018-08-10T05:07:28.853Z,14.70
2018-08-10T05:08:28.846Z,14.81
2018-08-10T05:09:28.839Z,14.81
2018-08-10T05:10:28.833Z,14.81
2018-08-10T05:11:28.825Z,14.81
2018-08-10T05:12:28.817Z,14.85
2018-08-10T05:13:28.810Z,14.84
2018-08-10T05:14:28.805Z,14.96
2018-08-10T05:15:28.796Z,14.91
2018-08-10T05:16:28.789Z,14.97
2018-08-10T05:17:28.785Z,15.00
2018-08-10T05:18:28.779Z,15.09
2018-08-10T05:19:28.768Z,14.99
2018-08-10T05:20:28.760Z,15.19
2018-08-10T05:21:28.754Z,15.21
2018-08-10T05:22:28.748Z,15.24
2018-08-10T05:23:28.741Z,15.24
2018-08-10T05:24:28.733Z,15.28
2018-08-10T05:25:28.727Z,15.31
2018-08-10T05:26:28.721Z,15.33
2018-08-10T05:27:28.713Z,15.42
2018-08-10T05:28:28.706Z,15.42
2018-08-10T05:29:28.700Z,15.36
2018-08-10T05:30:28.694Z,15.40
2018-08-10T05:31:28.686Z,15.40
2018-08-10T05:32:28.679Z,15.40
2018-08-10T05:33:28.673Z,15.44
2018-08-10T05:34:28.666Z,15.47
2018-08-10T05:35:28.661Z,15.44
2018-08-10T05:36:28.653Z,15.42
2018-08-10T05:37:28.646Z,15.52
2018-08-10T05:38:28.639Z,15.47
2018-08-10T05:39:28.632Z,15.47
2018-08-10T05:40:28.626Z,15.55
2018-08-10T05:41:28.619Z,15.57
2018-08-10T05:42:28.613Z,15.61
2018-08-10T05:43:28.605Z,15.58
2018-08-10T05:44:28.599Z,15.58
2018-08-10T05:45:28.594Z,15.52
2018-08-10T05:46:28.687Z,15.58
2018-08-10T05:47:28.580Z,15.57
2018-08-10T05:48:28.573Z,15.58
2018-08-10T05:49:28.567Z,15.58
2018-08-10T05:50:28.566Z,15.54
2018-08-10T05:51:28.552Z,15.64
2018-08-10T05:52:28.596Z,15.62
2018-08-10T05:53:28.541Z,15.59
2018-08-10T05:54:28.533Z,15.55
2018-08-10T05:55:28.525Z,15.64
2018-08-10T05:56:28.519Z,15.61
2018-08-10T05:57:28.620Z,15.65
2018-08-10T05:58:28.506Z,15.62
2018-08-10T05:59:28.500Z,15.67
2018-08-10T06:00:28.493Z,15.76
2018-08-10T06:01:28.489Z,15.68
2018-08-10T06:02:28.480Z,15.67
2018-08-10T06:03:28.663Z,15.65
2018-08-10T06:04:28.470Z,15.72
2018-08-10T06:05:28.461Z,15.86
2018-08-10T06:06:28.455Z,15.79
2018-08-10T06:07:28.447Z,15.79
2018-08-10T06:08:28.441Z,15.86
2018-08-10T06:09:28.435Z,15.91
2018-08-10T06:10:28.429Z,15.98
2018-08-10T06:11:28.420Z,15.94
2018-08-10T06:12:28.415Z,16.00
2018-08-10T06:13:28.409Z,16.04
2018-08-10T06:14:28.402Z,16.02
2018-08-10T06:15:28.467Z,16.00
2018-08-10T06:16:28.391Z,16.04
2018-08-10T06:17:28.384Z,16.10
2018-08-10T06:18:28.377Z,16.13
2018-08-10T06:19:28.426Z,16.05
2018-08-10T06:20:28.365Z,16.12
2018-08-10T06:21:28.365Z,16.16
2018-08-10T06:22:28.358Z,16.26
2018-08-10T06:23:28.345Z,16.23
2018-08-10T06:24:28.339Z,16.09
2018-08-10T06:25:28.334Z,16.10
2018-08-10T06:26:28.330Z,16.16
2018-08-10T06:27:28.321Z,16.15
2018-08-10T06:28:28.316Z,16.20
2018-08-10T06:29:28.310Z,16.20
2018-08-10T06:30:28.304Z,16.20
2018-08-10T06:31:28.297Z,16.31
2018-08-10T06:32:28.290Z,16.23
2018-08-10T06:33:28.284Z,16.23
2018-08-10T06:34:28.278Z,16.26
2018-08-10T06:35:28.272Z,16.35
2018-08-10T06:36:28.266Z,16.39
2018-08-10T06:37:28.260Z,16.38
2018-08-10T06:38:28.255Z,16.38
2018-08-10T06:39:28.247Z,16.38
2018-08-10T06:40:28.242Z,16.32
2018-08-10T06:41:28.236Z,16.41
2018-08-10T06:42:28.230Z,16.32
2018-08-10T06:43:28.224Z,16.46
2018-08-10T06:44:28.218Z,16.61
2018-08-10T06:45:28.213Z,16.68
2018-08-10T06:46:28.207Z,16.79
2018-08-10T06:47:28.202Z,16.76
2018-08-10T06:48:28.197Z,16.71
2018-08-10T06:49:28.189Z,16.69
2018-08-10T06:50:28.184Z,16.76
2018-08-10T06:51:28.177Z,16.79
2018-08-10T06:52:28.173Z,16.89
2018-08-10T06:53:28.167Z,16.94
2018-08-10T06:54:28.162Z,16.78
2018-08-10T06:55:28.155Z,16.87
2018-08-10T06:56:28.150Z,16.75
2018-08-10T06:57:28.145Z,16.71
2018-08-10T06:58:28.140Z,16.66
2018-08-10T06:59:28.133Z,16.65
2018-08-10T07:00:28.138Z,16.68
2018-08-10T07:01:28.132Z,16.84
2018-08-10T07:02:28.118Z,16.86
2018-08-10T07:03:28.112Z,17.14
2018-08-10T07:04:28.107Z,17.22
2018-08-10T07:05:28.147Z,17.19
2018-08-10T07:06:28.097Z,17.12
2018-08-10T07:07:28.123Z,17.15
2018-08-10T07:08:28.087Z,17.16
2018-08-10T07:09:28.083Z,17.30
2018-08-10T07:10:28.078Z,17.33
2018-08-10T07:11:28.073Z,17.26
2018-08-10T07:12:28.070Z,17.36
2018-08-10T07:13:28.128Z,17.31
2018-08-10T07:14:28.060Z,17.45
2018-08-10T07:15:28.060Z,17.41
2018-08-10T07:16:28.053Z,17.38
2018-08-10T07:17:28.047Z,17.54
2018-08-10T07:18:28.044Z,17.54
2018-08-10T07:19:28.039Z,17.52
2018-08-10T07:20:28.037Z,17.36
2018-08-10T07:21:28.035Z,17.44
2018-08-10T07:22:28.031Z,17.31
2018-08-10T07:23:28.028Z,17.59
2018-08-10T07:24:28.032Z,17.80
2018-08-10T07:25:28.024Z,17.95
2018-08-10T07:26:28.023Z,18.03
2018-08-10T07:27:28.023Z,18.08
2018-08-10T07:28:28.023Z,17.97
2018-08-10T07:29:28.022Z,17.92
2018-08-10T07:30:28.021Z,17.95
2018-08-10T07:31:28.019Z,17.89
2018-08-10T07:32:28.019Z,18.07
2018-08-10T07:33:28.019Z,18.33
2018-08-10T07:34:28.020Z,18.43
2018-08-10T07:35:28.019Z,18.56
2018-08-10T07:36:28.021Z,18.63
2018-08-10T07:37:28.024Z,18.63
2018-08-10T07:38:28.026Z,18.58
2018-08-10T07:39:28.025Z,18.45
2018-08-10T07:40:28.025Z,18.38
2018-08-10T07:41:28.027Z,18.56
2018-08-10T07:42:28.030Z,18.75
2018-08-10T07:43:28.030Z,18.74
2018-08-10T07:44:28.032Z,18.55
2018-08-10T07:45:28.035Z,18.59
2018-08-10T07:46:28.066Z,18.65
2018-08-10T07:47:28.038Z,18.73
2018-08-10T07:48:28.045Z,18.80
2018-08-10T07:49:28.044Z,18.88
2018-08-10T07:50:28.047Z,18.86
2018-08-10T07:51:28.049Z,18.90
2018-08-10T07:52:28.052Z,19.16
2018-08-10T07:53:28.055Z,19.29
2018-08-10T07:54:28.058Z,19.11
2018-08-10T07:55:28.062Z,18.83
2018-08-10T07:56:28.064Z,18.96
2018-08-10T07:57:28.068Z,19.27
2018-08-10T07:58:28.071Z,19.52
2018-08-10T07:59:28.074Z,19.67
2018-08-10T08:00:28.079Z,19.76
2018-08-10T08:01:28.083Z,19.49
2018-08-10T08:02:28.088Z,19.37
2018-08-10T08:03:28.092Z,19.49
2018-08-10T08:04:28.098Z,19.30
2018-08-10T08:05:28.099Z,19.15
2018-08-10T08:06:28.102Z,19.11
2018-08-10T08:07:28.104Z,18.81
2018-08-10T08:08:28.107Z,18.77
2018-08-10T08:09:28.109Z,18.71
2018-08-10T08:10:28.115Z,18.86
2018-08-10T08:11:28.112Z,18.88
2018-08-10T08:12:28.114Z,19.21
2018-08-10T08:13:28.116Z,19.34
2018-08-10T08:14:28.120Z,19.31
2018-08-10T08:15:28.121Z,19.34
2018-08-10T08:16:28.123Z,19.47
2018-08-10T08:17:28.126Z,19.48
2018-08-10T08:18:28.130Z,19.29
2018-08-10T08:19:28.174Z,18.99
2018-08-10T08:20:28.135Z,18.78
2018-08-10T08:21:28.138Z,19.11
2018-08-10T08:22:28.139Z,18.95
2018-08-10T08:23:28.141Z,18.92
2018-08-10T08:24:28.143Z,18.73
2018-08-10T08:25:28.144Z,18.86
2018-08-10T08:26:28.146Z,18.98
2018-08-10T08:27:28.147Z,19.26
2018-08-10T08:28:28.149Z,19.39
2018-08-10T08:29:28.150Z,19.49
2018-08-10T08:30:28.153Z,19.66
2018-08-10T08:31:28.154Z,19.54
2018-08-10T08:32:28.157Z,19.67
2018-08-10T08:33:28.195Z,19.89
2018-08-10T08:34:28.161Z,19.79
2018-08-10T08:35:28.163Z,19.88
2018-08-10T08:36:28.166Z,20.21
2018-08-10T08:37:28.169Z,20.67
2018-08-10T08:38:28.271Z,20.62
2018-08-10T08:39:28.179Z,20.55
2018-08-10T08:40:28.182Z,20.63
2018-08-10T08:41:28.187Z,20.87
2018-08-10T08:42:28.192Z,21.00
2018-08-10T08:43:28.198Z,21.27
2018-08-10T08:44:28.203Z,21.46
2018-08-10T08:45:28.311Z,21.69
2018-08-10T08:46:28.361Z,21.67
2018-08-10T08:47:28.223Z,21.36
2018-08-10T08:48:28.229Z,21.20
2018-08-10T08:49:28.237Z,21.03
2018-08-10T08:50:28.244Z,20.90
2018-08-10T08:51:28.260Z,21.03
2018-08-10T08:52:28.264Z,21.52
2018-08-10T08:53:28.266Z,21.95
2018-08-10T08:54:28.273Z,21.85
2018-08-10T08:55:28.281Z,21.91
2018-08-10T08:56:28.288Z,21.85
2018-08-10T08:57:28.297Z,21.89
2018-08-10T08:58:28.305Z,21.88
2018-08-10T08:59:28.312Z,22.10
2018-08-10T09:00:28.319Z,22.15
2018-08-10T09:01:28.328Z,22.26
2018-08-10T09:02:28.336Z,22.43
2018-08-10T09:03:28.343Z,22.55
2018-08-10T09:04:28.352Z,22.50
2018-08-10T09:05:28.360Z,22.47
2018-08-10T09:06:28.368Z,22.39
2018-08-10T09:07:28.572Z,22.23
2018-08-10T09:08:28.383Z,22.11
2018-08-10T09:09:28.390Z,21.89
2018-08-10T09:10:28.397Z,21.48
2018-08-10T09:11:28.402Z,21.06
2018-08-10T09:12:28.407Z,20.85
2018-08-10T09:13:28.413Z,20.82
2018-08-10T09:14:28.479Z,20.74
2018-08-10T09:15:28.421Z,21.29
2018-08-10T09:16:28.427Z,21.58
2018-08-10T09:17:28.457Z,21.85
2018-08-10T09:18:28.438Z,21.98
2018-08-10T09:19:28.445Z,21.66
2018-08-10T09:20:28.450Z,21.17
2018-08-10T09:21:28.457Z,21.27
2018-08-10T09:22:28.465Z,21.30
2018-08-10T09:23:28.494Z,21.40
2018-08-10T09:24:28.479Z,21.70
2018-08-10T09:25:28.485Z,21.80
2018-08-10T09:26:28.571Z,21.75
2018-08-10T09:27:28.500Z,21.58
2018-08-10T09:28:28.511Z,21.85
2018-08-10T09:29:28.517Z,22.18
2018-08-10T09:30:28.524Z,22.51
2018-08-10T09:31:28.536Z,22.63
2018-08-10T09:32:28.542Z,22.68
2018-08-10T09:33:28.550Z,22.43
2018-08-10T09:34:28.638Z,22.38
2018-08-10T09:35:28.566Z,22.38
2018-08-10T09:36:28.577Z,22.50
2018-08-10T09:37:28.588Z,22.80
2018-08-10T09:38:28.645Z,22.73
2018-08-10T09:39:28.602Z,22.44
2018-08-10T09:40:28.612Z,22.26
2018-08-10T09:41:28.621Z,22.00
2018-08-10T09:42:28.629Z,21.67
2018-08-10T09:43:28.636Z,21.51
2018-08-10T09:44:28.644Z,21.82
2018-08-10T09:45:28.731Z,21.92
2018-08-10T09:46:28.660Z,22.22
2018-08-10T09:47:28.666Z,22.85
2018-08-10T09:48:28.678Z,23.06
2018-08-10T09:50:28.691Z,22.43
2018-08-10T09:51:28.699Z,22.41
2018-08-10T09:52:28.708Z,22.50
2018-08-10T09:53:28.717Z,22.59
2018-08-10T09:54:28.725Z,22.70
2018-08-10T09:55:28.734Z,22.78
2018-08-10T09:56:28.743Z,22.60
2018-08-10T09:57:28.751Z,22.60
2018-08-10T09:58:28.760Z,22.38
2018-08-10T09:59:28.767Z,22.04
2018-08-10T10:00:28.776Z,22.11
2018-08-10T10:01:28.783Z,22.55
2018-08-10T10:02:28.791Z,23.18
2018-08-10T10:03:28.799Z,23.37
2018-08-10T10:04:28.809Z,23.25
2018-08-10T10:05:28.816Z,23.02
2018-08-10T10:06:28.825Z,22.44
2018-08-10T10:07:28.831Z,21.91
2018-08-10T10:08:28.840Z,21.91
2018-08-10T10:09:28.845Z,22.26
2018-08-10T10:10:28.852Z,22.38
2018-08-10T10:11:28.858Z,22.10
2018-08-10T10:12:28.865Z,21.89
2018-08-10T10:13:28.872Z,21.75
2018-08-10T10:14:28.878Z,21.82
2018-08-10T10:15:28.884Z,21.79
2018-08-10T10:16:28.890Z,21.93
2018-08-10T10:17:29.025Z,22.38
2018-08-10T10:18:28.904Z,22.81
2018-08-10T10:19:28.908Z,23.17
2018-08-10T10:20:28.915Z,23.25
2018-08-10T10:21:28.923Z,23.28
2018-08-10T10:22:28.930Z,23.24
2018-08-10T10:23:28.936Z,23.28
2018-08-10T10:24:28.945Z,23.71
2018-08-10T10:25:28.954Z,23.55
2018-08-10T10:26:28.961Z,23.39
2018-08-10T10:27:28.968Z,23.12
2018-08-10T10:28:28.975Z,22.62
2018-08-10T10:29:28.981Z,22.65
2018-08-10T10:30:28.988Z,22.41
2018-08-10T10:31:28.993Z,22.33
2018-08-10T10:32:29.001Z,22.32
2018-08-10T10:33:29.006Z,22.39
2018-08-10T10:34:29.013Z,22.59
2018-08-10T10:35:29.021Z,22.70
2018-08-10T10:36:29.026Z,22.90
2018-08-10T10:37:29.035Z,23.17
2018-08-10T10:38:29.044Z,23.08
2018-08-10T10:39:29.049Z,22.93
2018-08-10T10:40:29.057Z,22.62
2018-08-10T10:41:29.103Z,22.22
2018-08-10T10:42:29.072Z,22.36
2018-08-10T10:43:29.080Z,22.60
2018-08-10T10:44:29.084Z,22.59
2018-08-10T10:45:29.091Z,22.66
2018-08-10T10:46:29.098Z,23.00
2018-08-10T10:47:29.208Z,22.88
2018-08-10T10:48:29.111Z,22.75
2018-08-10T10:49:29.122Z,23.08
2018-08-10T10:50:29.127Z,23.32
2018-08-10T10:51:29.133Z,23.37
2018-08-10T10:52:29.140Z,23.76
2018-08-10T10:53:29.149Z,23.56
2018-08-10T10:54:29.157Z,23.81
2018-08-10T10:55:29.271Z,24.17
2018-08-10T10:56:29.230Z,23.71
2018-08-10T10:57:29.182Z,23.61
2018-08-10T10:58:29.196Z,23.32
2018-08-10T10:59:29.203Z,22.73
2018-08-10T11:00:29.211Z,22.62
2018-08-10T11:01:29.258Z,22.73
2018-08-10T11:02:29.222Z,22.88
2018-08-10T11:03:29.227Z,23.12
2018-08-10T11:04:29.234Z,22.78
2018-08-10T11:05:29.240Z,22.63
2018-08-10T11:06:29.343Z,22.47
2018-08-10T11:07:29.257Z,21.95
2018-08-10T11:08:29.254Z,21.61
2018-08-10T11:09:29.258Z,21.22
2018-08-10T11:10:29.261Z,21.24
2018-08-10T11:11:29.263Z,21.36
2018-08-10T11:12:29.267Z,21.29
2018-08-10T11:13:29.269Z,21.35
2018-08-10T11:14:29.270Z,21.35
2018-08-10T11:15:29.572Z,21.92
2018-08-10T11:16:29.274Z,22.29
2018-08-10T11:17:29.277Z,22.41
2018-08-10T11:18:29.282Z,22.57
2018-08-10T11:19:29.283Z,23.06
2018-08-10T11:20:29.387Z,23.36
2018-08-10T11:21:29.292Z,23.48
2018-08-10T11:22:29.297Z,23.15
2018-08-10T11:23:29.301Z,22.94
2018-08-10T11:24:29.304Z,22.84
2018-08-10T11:25:29.439Z,22.98
2018-08-10T11:26:29.311Z,22.88
2018-08-10T11:27:29.315Z,22.91
2018-08-10T11:28:29.321Z,22.93
2018-08-10T11:29:29.322Z,22.93
2018-08-10T11:30:29.328Z,22.66
2018-08-10T11:31:29.328Z,22.45
2018-08-10T11:32:29.334Z,22.38
2018-08-10T11:33:29.333Z,22.43
2018-08-10T11:34:29.335Z,22.32
2018-08-10T11:35:29.337Z,22.17
2018-08-10T11:36:29.339Z,22.00
2018-08-10T11:37:29.341Z,22.18
2018-08-10T11:38:29.344Z,22.63
2018-08-10T11:39:29.349Z,22.75
2018-08-10T11:40:29.349Z,22.72
2018-08-10T11:41:29.403Z,22.83
2018-08-10T11:42:29.355Z,22.73
2018-08-10T11:43:29.357Z,22.59
2018-08-10T11:44:29.360Z,22.39
2018-08-10T11:45:29.364Z,22.22
2018-08-10T11:46:29.365Z,21.93
2018-08-10T11:47:29.369Z,22.07
2018-08-10T11:48:29.367Z,21.92
2018-08-10T11:49:29.371Z,21.92
2018-08-10T11:50:29.370Z,21.69
2018-08-10T11:51:29.374Z,21.66
2018-08-10T11:52:29.450Z,21.54
2018-08-10T11:53:29.372Z,21.51
2018-08-10T11:54:29.372Z,21.42
2018-08-10T11:55:29.371Z,21.30
2018-08-10T11:56:29.373Z,21.39
2018-08-10T11:57:29.429Z,21.36
2018-08-10T11:58:29.373Z,21.46
2018-08-10T11:59:29.369Z,21.35
2018-08-10T12:00:29.368Z,21.35
2018-08-10T12:01:29.369Z,21.60
2018-08-10T12:02:29.369Z,21.70
2018-08-10T12:03:29.367Z,21.85
2018-08-10T12:04:29.366Z,21.82
2018-08-10T12:05:29.366Z,22.04
2018-08-10T12:06:29.372Z,22.59
2018-08-10T12:07:29.365Z,22.72
2018-08-10T12:08:29.366Z,22.84
2018-08-10T12:09:29.366Z,22.85
2018-08-10T12:10:29.367Z,23.13
2018-08-10T12:11:29.367Z,23.10
2018-08-10T12:12:29.404Z,23.50
2018-08-10T12:13:29.372Z,23.95
2018-08-10T12:14:29.374Z,24.24
2018-08-10T12:15:29.380Z,24.58
2018-08-10T12:16:29.382Z,25.04
2018-08-10T12:17:29.387Z,25.35
2018-08-10T12:18:29.392Z,25.41
2018-08-10T12:19:29.397Z,24.99
2018-08-10T12:20:29.404Z,24.40
2018-08-10T12:21:29.410Z,24.16
2018-08-10T12:22:29.416Z,23.95
2018-08-10T12:23:29.418Z,23.83
2018-08-10T12:24:29.426Z,23.21
2018-08-10T12:25:29.428Z,22.45
2018-08-10T12:26:29.432Z,21.95
2018-08-10T12:27:29.434Z,22.11
2018-08-10T12:28:29.437Z,22.17
2018-08-10T12:29:29.439Z,22.13
2018-08-10T12:30:29.442Z,22.14
2018-08-10T12:31:29.444Z,22.17
2018-08-10T12:32:29.443Z,22.00
2018-08-10T12:33:29.450Z,22.23
2018-08-10T12:34:29.446Z,22.59
2018-08-10T12:35:29.446Z,22.60
2018-08-10T12:36:29.448Z,22.80
2018-08-10T12:37:29.449Z,23.15
2018-08-10T12:38:29.452Z,23.78
2018-08-10T12:39:29.453Z,24.32
2018-08-10T12:40:29.456Z,24.99
2018-08-10T12:41:29.460Z,25.55
2018-08-10T12:42:29.463Z,25.62
2018-08-10T12:43:29.467Z,25.68
2018-08-10T12:44:29.472Z,25.65
2018-08-10T12:45:29.477Z,25.66
2018-08-10T12:46:29.495Z,25.47
2018-08-10T12:47:29.488Z,25.58
2018-08-10T12:48:29.494Z,25.90
2018-08-10T12:49:29.503Z,26.58
2018-08-10T12:50:29.531Z,26.65
2018-08-10T12:51:29.512Z,26.21
2018-08-10T12:52:29.518Z,26.28
2018-08-10T12:53:29.525Z,26.10